createdAt,value
2018-07-01T00:29:12.201Z,98061.00
2018-07-01T00:31:54.283Z,98063.00
2018-07-01T00:34:35.179Z,98062.00
2018-07-01T00:37:18.080Z,98062.00
2018-07-01T00:40:00.356Z,98068.00
2018-07-01T00:42:42.421Z,98068.00
2018-07-01T00:45:24.559Z,98065.00
2018-07-01T00:48:05.804Z,98065.00
2018-07-01T00:50:48.479Z,98065.00
2018-07-01T00:53:27.956Z,98068.00
2018-07-01T00:56:07.981Z,98066.00
2018-07-01T00:58:50.955Z,98072.00
2018-07-01T01:01:33.062Z,98073.00
2018-07-01T01:04:10.822Z,98064.00
2018-07-01T01:06:50.980Z,98069.00
2018-07-01T01:09:31.447Z,98066.00
2018-07-01T01:12:11.118Z,98065.00
2018-07-01T01:14:49.921Z,98069.00
2018-07-01T01:17:29.202Z,98068.00
2018-07-01T01:20:09.900Z,98061.00
2018-07-01T01:22:50.618Z,98064.00
2018-07-01T01:25:29.637Z,98062.00
2018-07-01T01:28:09.444Z,98070.00
2018-07-01T01:30:49.384Z,98072.00
2018-07-01T01:33:26.517Z,98071.00
2018-07-01T01:36:07.539Z,98074.00
2018-07-01T01:38:49.003Z,98075.00
2018-07-01T01:42:32.083Z,98077.00
2018-07-01T01:45:19.277Z,98072.00
2018-07-01T01:49:00.162Z,98072.00
2018-07-01T01:52:00.901Z,98069.00
2018-07-01T01:55:49.697Z,98064.00
2018-07-01T01:58:38.217Z,98063.00
2018-07-01T02:01:21.939Z,98060.00
2018-07-01T03:27:38.461Z,98083.00
2018-07-01T03:30:19.264Z,98078.00
2018-07-01T03:33:00.903Z,98080.00
2018-07-01T03:35:40.442Z,98087.00
2018-07-01T03:38:22.317Z,98091.00
2018-07-01T03:41:01.544Z,98097.00
2018-07-01T03:43:42.743Z,98099.00
2018-07-01T03:46:24.439Z,98094.00
2018-07-01T03:49:04.282Z,98094.00
2018-07-01T03:51:44.376Z,98094.00
2018-07-01T03:54:24.906Z,98090.00
2018-07-01T03:57:05.341Z,98099.00
2018-07-01T03:59:45.418Z,98097.00
2018-07-01T04:02:26.405Z,98095.00
2018-07-01T04:05:05.702Z,98099.00
2018-07-01T04:07:45.681Z,98094.00
2018-07-01T04:10:24.661Z,98102.00
2018-07-01T04:13:04.041Z,98100.00
2018-07-01T04:15:46.479Z,98104.00
2018-07-01T04:18:28.461Z,98108.00
2018-07-01T04:21:09.483Z,98109.00
2018-07-01T04:23:50.958Z,98102.00
2018-07-01T04:26:30.300Z,98103.00
2018-07-01T04:29:12.161Z,98106.00
2018-07-01T04:31:53.757Z,98111.00
2018-07-01T04:34:34.398Z,98118.00
2018-07-01T04:37:15.820Z,98124.00
2018-07-01T04:40:00.664Z,98122.00
2018-07-01T04:42:40.456Z,98125.00
2018-07-01T04:45:21.587Z,98128.00
2018-07-01T04:48:01.539Z,98124.00
2018-07-01T04:50:40.979Z,98128.00
2018-07-01T04:53:20.180Z,98127.00
2018-07-01T04:55:59.520Z,98128.00
2018-07-01T04:58:41.819Z,98131.00
2018-07-01T05:01:20.777Z,98130.00
2018-07-01T05:04:00.356Z,98137.00
2018-07-01T05:06:45.361Z,98132.00
2018-07-01T05:09:27.562Z,98136.00
2018-07-01T05:12:08.800Z,98135.00
2018-07-01T05:14:52.183Z,98139.00
2018-07-01T05:17:32.600Z,98143.00
2018-07-01T05:20:12.918Z,98144.00
2018-07-01T05:22:55.723Z,98141.00
2018-07-01T05:25:38.561Z,98141.00
2018-07-01T05:28:20.001Z,98139.00
2018-07-01T05:30:58.220Z,98142.00
2018-07-01T05:33:39.664Z,98135.00
2018-07-01T05:36:22.097Z,98139.00
2018-07-01T05:39:01.383Z,98135.00
2018-07-01T05:41:41.341Z,98131.00
2018-07-01T05:44:23.787Z,98128.00
2018-07-01T05:47:02.945Z,98136.00
2018-07-01T05:49:45.858Z,98131.00
2018-07-01T05:52:29.535Z,98129.00
2018-07-01T05:55:12.840Z,98128.00
2018-07-01T05:57:55.016Z,98129.00
2018-07-01T06:00:34.908Z,98133.00
2018-07-01T06:03:14.264Z,98130.00
2018-07-01T06:05:54.855Z,98133.00
2018-07-01T06:08:35.870Z,98131.00
2018-07-01T06:11:18.283Z,98127.00
2018-07-01T06:14:00.112Z,98129.00
2018-07-01T06:16:41.783Z,98126.00
2018-07-01T06:19:21.538Z,98119.00
2018-07-01T06:22:01.639Z,98125.00
2018-07-01T06:24:42.899Z,98124.00
2018-07-01T06:27:27.406Z,98116.00
2018-07-01T06:30:09.103Z,98113.00
2018-07-01T06:33:02.600Z,98117.00
2018-07-01T06:36:40.060Z,98110.00
2018-07-01T06:39:52.123Z,98103.00
2018-07-01T07:03:36.963Z,98092.00
2018-07-01T07:06:52.329Z,98092.00
2018-07-01T07:10:07.841Z,98086.00
2018-07-01T07:13:17.777Z,98088.00
2018-07-01T07:16:48.420Z,98076.00
2018-07-01T07:19:49.922Z,98076.00
2018-07-01T07:29:01.518Z,98065.00
2018-07-01T07:31:59.500Z,98063.00
2018-07-01T07:34:51.973Z,98057.00
2018-07-01T07:44:53.613Z,98050.00
2018-07-01T07:51:36.915Z,98052.00
2018-07-01T07:54:30.645Z,98048.00
2018-07-01T07:57:14.949Z,98051.00
2018-07-01T07:59:59.637Z,98051.00
2018-07-01T08:03:09.357Z,98034.00
2018-07-01T08:06:01.941Z,98040.00
2018-07-01T08:09:28.018Z,98043.00
2018-07-01T08:12:34.259Z,98043.00
2018-07-01T08:15:20.862Z,98036.00
2018-07-01T08:18:00.498Z,98032.00
2018-07-01T08:21:09.581Z,98030.00
2018-07-01T08:27:23.702Z,98023.00
2018-07-01T08:30:04.660Z,98019.00
2018-07-01T08:36:40.338Z,98024.00
2018-07-01T08:39:47.647Z,98022.00
2018-07-01T08:42:57.962Z,98019.00
2018-07-01T08:45:58.400Z,98018.00
2018-07-01T08:49:04.380Z,98019.00
2018-07-01T08:55:26.836Z,98018.00
2018-07-01T08:58:17.818Z,98017.00
2018-07-01T09:00:58.619Z,98020.00
2018-07-01T09:03:53.401Z,98027.00
2018-07-01T09:06:31.703Z,98028.00
2018-07-01T09:09:13.918Z,98026.00
2018-07-01T09:11:55.307Z,98029.00
2018-07-01T10:46:45.991Z,97993.00
2018-07-01T10:49:24.366Z,97994.00
2018-07-01T10:52:04.106Z,97988.00
2018-07-01T10:57:39.709Z,97986.00
2018-07-01T11:00:19.209Z,97985.00
2018-07-01T11:02:59.690Z,97980.00
2018-07-01T11:05:42.086Z,97977.00
2018-07-01T11:08:24.630Z,97987.00
2018-07-01T11:11:18.145Z,97977.00
2018-07-01T11:14:00.290Z,97980.00
2018-07-01T11:16:38.845Z,97976.00
2018-07-01T11:19:21.350Z,97968.00
2018-07-01T11:22:06.189Z,97962.00
2018-07-01T11:27:42.270Z,97959.00
2018-07-01T11:30:25.270Z,97966.00
2018-07-01T11:33:08.006Z,97971.00
2018-07-01T11:35:58.669Z,97961.00
2018-07-01T11:38:40.069Z,97953.00
2018-07-01T11:41:23.168Z,97960.00
2018-07-01T11:44:04.005Z,97952.00
2018-07-01T11:46:44.124Z,97957.00
2018-07-01T11:49:27.982Z,97946.00
2018-07-01T11:55:20.405Z,97950.00
2018-07-01T11:57:58.985Z,97941.00
2018-07-01T12:00:44.410Z,97941.00
2018-07-01T12:03:26.408Z,97941.00
2018-07-01T12:06:07.187Z,97941.00
2018-07-01T12:08:46.612Z,97939.00
2018-07-01T12:11:30.650Z,97936.00
2018-07-01T12:14:27.025Z,97933.00
2018-07-01T12:17:08.726Z,97939.00
2018-07-01T12:19:48.726Z,97934.00
2018-07-01T12:22:31.909Z,97934.00
2018-07-01T12:25:12.022Z,97933.00
2018-07-01T12:27:52.264Z,97924.00
2018-07-01T12:30:33.849Z,97925.00
2018-07-01T12:33:13.444Z,97927.00
2018-07-01T12:35:56.110Z,97929.00
2018-07-01T12:38:36.846Z,97927.00
2018-07-01T12:41:15.982Z,97929.00
2018-07-01T12:43:55.484Z,97921.00
2018-07-01T12:46:38.086Z,97918.00
2018-07-01T12:49:23.049Z,97918.00
2018-07-01T12:52:07.769Z,97918.00
2018-07-01T12:54:49.927Z,97917.00
2018-07-01T12:57:29.248Z,97918.00
2018-07-01T13:00:24.647Z,97910.00
2018-07-01T13:03:07.464Z,97916.00
2018-07-01T13:05:50.209Z,97910.00
2018-07-01T13:08:36.257Z,97910.00
2018-07-01T13:11:36.978Z,97898.00
2018-07-01T13:14:17.466Z,97894.00
2018-07-01T13:17:00.502Z,97891.00
2018-07-01T13:19:43.288Z,97883.00
2018-07-01T13:22:31.269Z,97882.00
2018-07-01T13:25:27.022Z,97872.00
2018-07-01T13:28:05.585Z,97878.00
2018-07-01T13:30:50.350Z,97876.00
2018-07-01T13:33:34.868Z,97877.00
2018-07-01T13:36:17.227Z,97876.00
2018-07-01T13:39:05.545Z,97879.00
2018-07-01T13:41:54.526Z,97874.00
2018-07-01T13:44:35.889Z,97879.00
2018-07-01T13:47:15.191Z,97867.00
2018-07-01T13:49:55.291Z,97863.00
2018-07-01T13:52:37.803Z,97859.00
2018-07-01T13:55:22.450Z,97871.00
2018-07-01T13:58:05.285Z,97858.00
2018-07-01T14:01:00.827Z,97867.00
2018-07-01T14:03:38.925Z,97860.00
2018-07-01T14:06:24.059Z,97859.00
2018-07-01T14:09:05.708Z,97855.00
2018-07-01T14:11:47.002Z,97847.00
2018-07-01T14:14:30.129Z,97850.00
2018-07-01T14:17:16.029Z,97846.00
2018-07-01T14:19:58.075Z,97844.00
2018-07-01T14:22:42.787Z,97853.00
2018-07-01T14:25:27.867Z,97854.00
2018-07-01T14:28:11.146Z,97843.00
2018-07-01T14:30:54.911Z,97842.00
2018-07-01T14:33:40.244Z,97842.00
2018-07-01T14:36:24.845Z,97848.00
2018-07-01T14:39:10.637Z,97849.00
2018-07-01T14:41:55.066Z,97843.00
2018-07-01T14:44:48.305Z,97840.00
2018-07-01T14:47:26.832Z,97830.00
2018-07-01T14:50:08.049Z,97835.00
2018-07-01T14:52:49.628Z,97829.00
2018-07-01T14:55:30.669Z,97834.00
2018-07-01T14:58:13.882Z,97833.00
2018-07-01T15:01:04.388Z,97840.00
2018-07-01T15:03:49.584Z,97843.00
2018-07-01T15:06:33.064Z,97842.00
2018-07-01T15:09:16.010Z,97840.00
2018-07-01T15:11:58.527Z,97838.00
2018-07-01T15:14:41.610Z,97842.00
2018-07-01T15:17:19.426Z,97836.00
2018-07-01T15:19:59.325Z,97833.00
2018-07-01T15:22:40.315Z,97836.00
2018-07-01T15:25:23.783Z,97831.00
2018-07-01T15:28:03.913Z,97825.00
2018-07-01T15:30:44.325Z,97827.00
2018-07-01T15:33:24.086Z,97827.00
2018-07-01T15:36:06.952Z,97830.00
2018-07-01T15:38:47.103Z,97834.00
2018-07-01T15:41:31.850Z,97834.00
2018-07-01T15:44:14.246Z,97824.00
2018-07-01T15:46:57.293Z,97826.00
2018-07-01T15:49:41.253Z,97824.00
2018-07-01T15:52:20.725Z,97825.00
2018-07-01T15:55:05.048Z,97818.00
2018-07-01T15:57:48.597Z,97813.00
2018-07-01T16:00:27.802Z,97823.00
2018-07-01T16:03:13.405Z,97822.00
2018-07-01T16:05:52.224Z,97822.00
2018-07-01T16:08:32.309Z,97818.00
2018-07-01T16:11:14.012Z,97816.00
2018-07-01T16:13:59.670Z,97818.00
2018-07-01T16:16:43.648Z,97815.00
2018-07-01T16:19:24.545Z,97813.00
2018-07-01T16:22:20.584Z,97811.00
2018-07-01T16:26:11.331Z,97811.00
2018-07-01T16:28:54.963Z,97809.00
2018-07-01T16:31:37.433Z,97817.00
2018-07-01T16:34:15.623Z,97813.00
2018-07-01T16:36:59.209Z,97813.00
2018-07-01T16:39:39.922Z,97817.00
2018-07-01T16:42:27.171Z,97813.00
2018-07-01T16:45:15.825Z,97819.00
2018-07-01T16:47:55.246Z,97825.00
2018-07-01T16:50:38.246Z,97828.00
2018-07-01T16:53:19.007Z,97828.00
2018-07-01T16:56:01.486Z,97830.00
2018-07-01T16:58:45.548Z,97837.00
2018-07-01T17:01:29.482Z,97835.00
2018-07-01T17:04:08.631Z,97837.00
2018-07-01T17:06:51.584Z,97839.00
2018-07-01T17:09:41.567Z,97848.00
2018-07-01T17:12:21.624Z,97846.00
2018-07-01T17:15:05.484Z,97842.00
2018-07-01T17:17:49.879Z,97844.00
2018-07-01T17:20:37.206Z,97845.00
2018-07-01T17:23:17.428Z,97848.00
2018-07-01T17:26:11.211Z,97849.00
2018-07-01T17:28:52.867Z,97843.00
2018-07-01T17:31:46.929Z,97848.00
2018-07-01T17:34:26.285Z,97851.00
2018-07-01T17:37:06.304Z,97854.00
2018-07-01T17:39:46.823Z,97855.00
2018-07-01T17:42:31.567Z,97860.00
2018-07-01T17:45:15.172Z,97868.00
2018-07-01T17:48:01.864Z,97869.00
2018-07-01T17:50:46.942Z,97874.00
2018-07-01T17:53:38.187Z,97870.00
2018-07-01T17:56:19.866Z,97868.00
2018-07-01T17:59:04.208Z,97871.00
2018-07-01T18:01:49.350Z,97871.00
2018-07-01T18:04:39.025Z,97869.00
2018-07-01T18:10:08.875Z,97868.00
2018-07-01T18:12:53.526Z,97867.00
2018-07-01T18:15:34.432Z,97867.00
2018-07-01T18:18:21.088Z,97877.00
2018-07-01T18:21:05.344Z,97875.00
2018-07-01T18:24:19.497Z,97874.00
2018-07-01T18:26:37.007Z,97879.00
2018-07-01T18:29:31.614Z,97886.00
2018-07-01T18:32:23.166Z,97882.00
2018-07-01T18:35:02.508Z,97886.00
2018-07-01T18:37:42.675Z,97886.00
2018-07-01T18:40:24.647Z,97887.00
2018-07-01T18:43:06.860Z,97892.00
2018-07-01T18:45:50.367Z,97894.00
2018-07-01T18:48:40.883Z,97893.00
2018-07-01T18:51:21.846Z,97891.00
2018-07-01T18:54:02.027Z,97892.00
2018-07-01T18:56:43.372Z,97894.00
2018-07-01T18:59:26.167Z,97896.00
2018-07-01T19:02:06.230Z,97895.00
2018-07-01T19:04:49.264Z,97897.00
2018-07-01T19:10:37.569Z,97904.00
2018-07-01T19:13:17.465Z,97907.00
2018-07-01T19:15:58.322Z,97912.00
2018-07-01T19:18:41.887Z,97907.00
2018-07-01T19:21:24.005Z,97914.00
2018-07-01T19:24:09.023Z,97917.00
2018-07-01T19:26:51.649Z,97915.00
2018-07-01T19:29:57.250Z,97921.00
2018-07-01T19:32:36.464Z,97924.00
2018-07-01T19:35:20.948Z,97921.00
2018-07-01T19:38:02.122Z,97925.00
2018-07-01T19:40:44.750Z,97925.00
2018-07-01T19:43:23.188Z,97932.00
2018-07-01T19:46:04.787Z,97934.00
2018-07-01T19:48:49.882Z,97939.00
2018-07-01T19:51:40.668Z,97938.00
2018-07-01T19:54:36.202Z,97939.00
2018-07-01T19:57:14.210Z,97938.00
2018-07-01T19:59:56.288Z,97948.00
2018-07-01T20:02:39.365Z,97950.00
2018-07-01T20:05:28.228Z,97951.00
2018-07-01T20:08:11.950Z,97955.00
2018-07-01T20:11:00.728Z,97953.00
2018-07-01T20:13:39.652Z,97955.00
2018-07-01T20:16:18.664Z,97954.00
2018-07-01T20:19:06.729Z,97956.00
2018-07-01T20:21:49.747Z,97953.00
2018-07-01T20:24:33.469Z,97959.00
2018-07-01T20:27:18.050Z,97957.00
2018-07-01T20:30:01.191Z,97957.00
2018-07-01T20:32:42.766Z,97958.00
2018-07-01T20:35:27.807Z,97957.00
2018-07-01T20:38:10.032Z,97964.00
2018-07-01T20:40:52.083Z,97963.00
2018-07-01T20:43:31.225Z,97964.00
2018-07-01T20:46:17.708Z,97968.00
2018-07-01T20:48:58.489Z,97967.00
2018-07-01T20:51:39.064Z,97970.00
2018-07-01T20:54:20.704Z,97969.00
2018-07-01T20:57:06.612Z,97973.00
2018-07-01T20:59:49.564Z,97973.00
2018-07-01T21:02:33.367Z,97979.00
2018-07-01T21:05:25.507Z,97976.00
2018-07-01T21:08:07.944Z,97981.00
2018-07-01T21:10:49.431Z,97976.00
2018-07-01T21:13:35.644Z,97981.00
2018-07-01T21:16:18.190Z,97982.00
2018-07-01T21:18:59.425Z,97981.00
2018-07-01T21:21:40.726Z,97987.00
2018-07-01T21:24:25.511Z,97991.00
2018-07-01T21:27:19.641Z,97990.00
2018-07-01T21:30:00.484Z,97992.00
2018-07-01T21:32:45.805Z,97988.00
2018-07-01T21:35:25.887Z,97992.00
2018-07-01T21:38:06.566Z,97995.00
2018-07-01T21:40:49.509Z,97992.00
2018-07-01T21:43:30.324Z,97992.00
2018-07-01T21:46:12.027Z,97995.00
2018-07-01T21:49:05.629Z,97992.00
2018-07-01T21:51:46.730Z,97990.00
2018-07-01T21:54:31.553Z,97989.00
2018-07-01T21:57:10.946Z,97989.00
2018-07-01T21:59:50.944Z,97986.00
2018-07-01T22:02:33.804Z,97989.00
2018-07-01T22:05:16.094Z,97995.00
2018-07-01T22:08:10.188Z,97997.00
2018-07-01T22:11:03.249Z,97989.00
2018-07-01T22:32:28.397Z,98009.00
2018-07-01T22:35:11.264Z,98007.00
2018-07-01T22:37:48.886Z,98006.00
2018-07-01T22:40:30.520Z,98011.00
2018-07-01T22:43:11.116Z,98010.00
2018-07-01T22:45:53.420Z,98013.00
2018-07-01T22:48:33.677Z,98013.00
2018-07-01T22:51:19.517Z,98010.00
2018-07-01T22:53:59.818Z,98011.00
2018-07-01T22:56:40.722Z,98008.00
2018-07-01T22:59:22.921Z,98011.00
